Flight Track Log - Related Links

Times and Time Zones

All times are in EDT time to prevent confusion due to time zone crossing. See the BAW279 flight status page for this flight to view local times or setup timezone preferences in your user account.

Time Position Orientation Groundspeed Altitude Reporting Facility
EDT Latitude Longitude Course Direction KTS MPH feet Rate Location/Type
Sat 05:04:52 AM 51.4673 -0.5211 298° West 189 217 1,900  Level FlightAware ADS-B
Sat 05:05:07 AM 51.4739 -0.5413 299° West 208 239 2,300 1,600 Climbing FlightAware ADS-B
Sat 05:05:22 AM 51.4814 -0.5630 298° West 226 260 2,700 2,000 Climbing FlightAware ADS-B
Sat 05:05:37 AM 51.4891 -0.5859 298° West 234 269 3,300 2,710 Climbing FlightAware ADS-B
Sat 05:05:53 AM 51.4969 -0.6097 298° West 238 274 4,100 2,903 Climbing FlightAware ADS-B
Sat 05:06:08 AM 51.5048 -0.6333 298° West 241 277 4,800 2,800 Climbing FlightAware ADS-B
Sat 05:06:23 AM 51.5127 -0.6576 299° West 246 283 5,500 2,727 Climbing FlightAware ADS-B
Sat 05:06:30 AM 51.5163 -0.6683 302° West 249 287 5,800 2,400 Climbing FlightAware ADS-B
Sat 05:06:33 AM 51.5181 -0.6729 310° West 250 288 5,900 2,000 Climbing FlightAware ADS-B
Sat 05:06:36 AM 51.5205 -0.6776 316° Northwest 253 291 6,000 1,714 Climbing FlightAware ADS-B
Sat 05:06:40 AM 51.5239 -0.6829 325° Northwest 257 296 6,100 2,250 Climbing FlightAware ADS-B
Sat 05:06:44 AM 51.5276 -0.6870 334° Northwest 259 298 6,300 2,571 Climbing FlightAware ADS-B
Sat 05:06:47 AM 51.5316 -0.6902 340° North 260 299 6,400 2,571 Climbing FlightAware ADS-B
Sat 05:06:51 AM 51.5359 -0.6927 348° North 263 303 6,600 3,000 Climbing FlightAware ADS-B
Sat 05:06:55 AM 51.5410 -0.6944 354° North 268 308 6,800 2,250 Climbing FlightAware ADS-B
Sat 05:06:59 AM 51.5452 -0.6951 North 271 312 6,900 2,250 Climbing FlightAware ADS-B
Sat 05:07:03 AM 51.5509 -0.6949 North 275 316 7,100 2,250 Climbing FlightAware ADS-B
Sat 05:07:07 AM 51.5557 -0.6940 10° North 279 321 7,200 2,250 Climbing FlightAware ADS-B
Sat 05:07:11 AM 51.5611 -0.6924 North 281 323 7,400 2,182 Climbing FlightAware ADS-B
Sat 05:07:18 AM 51.5706 -0.6900 North 281 323 7,600 1,714 Climbing FlightAware ADS-B
Sat 05:07:25 AM 51.5793 -0.6886 North 277 319 7,800 1,286 Climbing FlightAware ADS-B
Sat 05:07:32 AM 51.5872 -0.6877 North 276 318 7,900 632 Climbing FlightAware ADS-B
Sat 05:07:44 AM 51.6029 -0.6871 359° North 281 323 8,000 222 Climbing FlightAware ADS-B
Sat 05:07:59 AM 51.6234 -0.6878 357° North 287 330 8,000  Level FlightAware ADS-B
Sat 05:08:14 AM 51.6431 -0.6895 356° North 301 346 8,000  Level FlightAware ADS-B
Sat 05:08:26 AM 51.6601 -0.6915 355° North 300 345 8,000  Level FlightAware ADS-B
Sat 05:08:41 AM 51.6810 -0.6944 355° North 300 345 8,000  Level FlightAware ADS-B
Sat 05:08:57 AM 51.7027 -0.6972 355° North 301 346 8,000  Level FlightAware ADS-B
Sat 05:09:12 AM 51.7242 -0.7000 355° North 298 343 8,000  Level FlightAware ADS-B
Sat 05:09:28 AM 51.7463 -0.7031 356° North 301 346 8,000  Level FlightAware ADS-B
Sat 05:09:36 AM 51.7566 -0.7042 North 302 348 8,000  Level FlightAware ADS-B
Sat 05:09:45 AM 51.7689 -0.7032 13° North 306 352 8,000  Level FlightAware ADS-B
Sat 05:09:50 AM 51.7767 -0.7004 17° North 308 354 8,000  Level FlightAware ADS-B
Sat 05:09:54 AM 51.7827 -0.6974 20° North 309 356 8,000  Level FlightAware ADS-B
Sat 05:10:07 AM 51.8001 -0.6869 21° North 309 356 8,000  Level FlightAware ADS-B
Sat 05:10:23 AM 51.8212 -0.6737 20° North 311 358 8,000 194 Level FlightAware ADS-B
Sat 05:10:38 AM 51.8417 -0.6613 20° North 312 359 8,100 1,355 Climbing FlightAware ADS-B
Sat 05:10:54 AM 51.8624 -0.6491 21° North 313 360 8,700 2,129 Climbing FlightAware ADS-B
Sat 05:11:09 AM 51.8835 -0.6363 21° North 322 371 9,200 1,548 Climbing FlightAware ADS-B
Sat 05:11:25 AM 51.9060 -0.6226 20° North 339 390 9,500 1,915 Climbing FlightAware ADS-B
Sat 05:11:56 AM 51.9529 -0.5944 20° North 355 409 10,700 2,156 Climbing FlightAware ADS-B
Sat 05:12:29 AM 52.0064 -0.5624 21° North 376 433 11,800 2,156 Climbing FlightAware ADS-B
Sat 05:13:00 AM 52.0568 -0.5312 21° North 386 444 13,000 2,327 Climbing FlightAware ADS-B
Sat 05:13:18 AM 52.0882 -0.5116 15° North 393 452 13,700 2,000 Climbing FlightAware ADS-B
Sat 05:13:30 AM 52.1089 -0.5022 North 394 453 14,000 1,826 Climbing FlightAware ADS-B
Sat 05:13:41 AM 52.1292 -0.4981 360° North 395 455 14,400 2,526 Climbing FlightAware ADS-B
Sat 05:13:49 AM 52.1441 -0.4981 352° North 393 452 14,800 2,609 Climbing FlightAware ADS-B
Sat 05:14:04 AM 52.1696 -0.5041 344° North 392 451 15,400 2,727 Climbing FlightAware ADS-B
Sat 05:14:11 AM 52.1827 -0.5103 337° Northwest 391 450 15,800 2,667 Climbing FlightAware ADS-B
Sat 05:14:22 AM 52.2003 -0.5223 331° Northwest 390 449 16,200 2,093 Climbing FlightAware ADS-B
Sat 05:14:54 AM 52.2507 -0.5688 330° Northwest 396 456 17,300 2,226 Climbing FlightAware ADS-B
Sat 05:15:24 AM 52.2992 -0.6139 330° Northwest 399 459 18,500 2,262 Climbing FlightAware ADS-B
Sat 05:15:55 AM 52.3480 -0.6598 331° Northwest 401 461 19,600 2,164 Climbing FlightAware ADS-B
Sat 05:16:25 AM 52.3980 -0.7059 331° Northwest 406 467 20,700 2,066 Climbing FlightAware ADS-B
Sat 05:16:56 AM 52.4491 -0.7515 332° Northwest 411 473 21,700 1,810 Climbing FlightAware ADS-B
Sat 05:17:28 AM 52.5033 -0.7996 332° Northwest 416 479 22,600 1,720 Climbing FlightAware ADS-B
Sat 05:19:33 AM 52.7173 -0.9915 332° Northwest 432 497 26,200 1,692 Climbing FlightAware ADS-B
Sat 05:20:04 AM 52.7711 -1.0379 333° Northwest 436 502 27,000 1,475 Climbing FlightAware ADS-B
Sat 05:20:34 AM 52.8265 -1.0855 333° Northwest 441 507 27,700 1,714 Climbing FlightAware ADS-B
Sat 05:21:07 AM 52.8853 -1.1356 333° Northwest 438 504 28,800 1,594 Climbing FlightAware ADS-B
Sat 05:21:38 AM 52.9415 -1.1836 333° Northwest 443 510 29,400 919 Climbing FlightAware ADS-B
Sat 05:22:58 AM 53.0909 -1.3122 332° Northwest 465 535 30,500 675 Climbing FlightAware ADS-B
Sat 05:25:29 AM 53.3765 -1.5618 332° Northwest 463 533 32,000 492 Climbing FlightAware ADS-B
Sat 05:26:01 AM 53.4381 -1.6158 332° Northwest 463 533 32,000  Level FlightAware ADS-B
Sat 05:26:33 AM 53.4984 -1.6688 332° Northwest 458 527 32,000  Level FlightAware ADS-B
Sat 05:27:08 AM 53.5637 -1.7268 332° Northwest 458 527 32,000  Level FlightAware ADS-B
Sat 05:27:39 AM 53.6210 -1.7779 332° Northwest 456 525 32,000  Level FlightAware ADS-B
Sat 05:28:10 AM 53.6787 -1.8293 332° Northwest 457 526 32,000  Level FlightAware ADS-B
Sat 05:28:43 AM 53.7408 -1.8850 324° Northwest 460 529 32,000  Level FlightAware ADS-B
Sat 05:35:52 AM 54.1124 -3.1909 324° Northwest  Level FlightAware Approximate
Sat 05:36:52 AM 54.1677 -3.3716 324° Northwest  Level FlightAware Approximate
Sat 05:37:52 AM 54.2227 -3.5528 323° Northwest  Level FlightAware Approximate
Sat 05:38:52 AM 54.2775 -3.7345 323° Northwest  Level FlightAware Approximate
Sat 05:39:52 AM 54.3319 -3.9166 323° Northwest  Level FlightAware Approximate
Sat 05:40:52 AM 54.3861 -4.0993 323° Northwest  Level FlightAware Approximate
Sat 05:41:52 AM 54.4400 -4.2824 323° Northwest  Level FlightAware Approximate
Sat 05:42:52 AM 54.4937 -4.4660 323° Northwest  Level FlightAware Approximate
Sat 05:43:52 AM 54.5470 -4.6501 323° Northwest  Level FlightAware Approximate
Sat 05:44:52 AM 54.6001 -4.8347 323° Northwest  Level FlightAware Approximate
Sat 05:45:52 AM 54.6611 -5.0121 323° Northwest  Level FlightAware Approximate
Sat 05:46:52 AM 54.7218 -5.1901 323° Northwest  Level FlightAware Approximate
Sat 05:47:52 AM 54.7823 -5.3686 323° Northwest  Level FlightAware Approximate
Sat 05:48:52 AM 54.8424 -5.5476 323° Northwest  Level FlightAware Approximate
Sat 05:49:52 AM 54.9024 -5.7271 323° Northwest  Level FlightAware Approximate
Sat 05:50:52 AM 54.9620 -5.9072 323° Northwest  Level FlightAware Approximate
Sat 05:51:52 AM 55.0214 -6.0878 323° Northwest  Level FlightAware Approximate
Sat 05:52:52 AM 55.0806 -6.2690 323° Northwest  Level FlightAware Approximate
Sat 05:53:52 AM 55.1394 -6.4507 323° Northwest  Level FlightAware Approximate
Sat 05:54:52 AM 55.1980 -6.6329 323° Northwest  Level FlightAware Approximate
Sat 05:55:52 AM 55.2563 -6.8157 323° Northwest  Level FlightAware Approximate
Sat 05:56:52 AM 55.3144 -6.9990 323° Northwest  Level FlightAware Approximate
Sat 05:57:52 AM 55.3721 -7.1828 323° Northwest  Level FlightAware Approximate
Sat 05:58:52 AM 55.4296 -7.3672 323° Northwest  Level FlightAware Approximate
Sat 05:59:52 AM 55.4868 -7.5521 322° Northwest  Level FlightAware Approximate
Sat 06:00:52 AM 55.5438 -7.7375 322° Northwest  Level FlightAware Approximate
Sat 06:01:52 AM 55.6004 -7.9235 322° Northwest  Level FlightAware Approximate
Sat 06:02:52 AM 55.6568 -8.1100 322° Northwest  Level FlightAware Approximate
Sat 06:03:52 AM 55.7129 -8.2971 322° Northwest  Level FlightAware Approximate
Sat 06:04:52 AM 55.7687 -8.4847 322° Northwest  Level FlightAware Approximate
Sat 06:05:52 AM 55.8242 -8.6728 322° Northwest  Level FlightAware Approximate
Sat 06:06:52 AM 55.8794 -8.8614 322° Northwest  Level FlightAware Approximate
Sat 06:07:52 AM 55.9343 -9.0506 322° Northwest  Level FlightAware Approximate
Sat 06:08:52 AM 55.9890 -9.2404 322° Northwest  Level FlightAware Approximate
Sat 06:09:52 AM 56.0515 -9.4225 322° Northwest  Level FlightAware Approximate
Sat 06:10:52 AM 56.1137 -9.6052 322° Northwest  Level FlightAware Approximate
Sat 06:11:52 AM 56.1757 -9.7884 322° Northwest  Level FlightAware Approximate
Sat 06:12:52 AM 56.2374 -9.9723 322° Northwest  Level FlightAware Approximate
Sat 06:13:52 AM 56.2988 -10.1568 322° Northwest  Level FlightAware Approximate
Sat 06:14:52 AM 56.3600 -10.3418 322° Northwest  Level FlightAware Approximate
Sat 06:15:52 AM 56.4208 -10.5275 322° Northwest  Level FlightAware Approximate
Sat 06:16:52 AM 56.4814 -10.7137 322° Northwest  Level FlightAware Approximate
Sat 06:17:52 AM 56.5417 -10.9005 322° Northwest  Level FlightAware Approximate
Sat 06:18:52 AM 56.6017 -11.0880 322° Northwest  Level FlightAware Approximate
Sat 06:19:52 AM 56.6615 -11.2760 321° Northwest  Level FlightAware Approximate
Sat 06:20:52 AM 56.7210 -11.4646 321° Northwest  Level FlightAware Approximate
Sat 06:21:52 AM 56.7801 -11.6538 321° Northwest  Level FlightAware Approximate
Sat 06:22:52 AM 56.8390 -11.8436 321° Northwest  Level FlightAware Approximate
Sat 06:23:52 AM 56.8976 -12.0340 321° Northwest  Level FlightAware Approximate
Sat 06:24:52 AM 56.9559 -12.2251 321° Northwest  Level FlightAware Approximate
Sat 06:25:52 AM 57.0140 -12.4167 321° Northwest  Level FlightAware Approximate
Sat 06:26:52 AM 57.0717 -12.6089 321° Northwest  Level FlightAware Approximate
Sat 06:27:52 AM 57.1291 -12.8017 321° Northwest  Level FlightAware Approximate
Sat 06:28:52 AM 57.1863 -12.9951 321° Northwest  Level FlightAware Approximate
Sat 06:29:52 AM 57.2431 -13.1890 321° Northwest  Level FlightAware Approximate
Sat 06:30:52 AM 57.2996 -13.3836 321° Northwest  Level FlightAware Approximate
Sat 06:31:52 AM 57.3559 -13.5788 321° Northwest  Level FlightAware Approximate
Sat 06:32:52 AM 57.4118 -13.7746 321° Northwest  Level FlightAware Approximate
Sat 06:33:52 AM 57.4674 -13.9710 321° Northwest  Level FlightAware Approximate
Sat 06:34:52 AM 57.5228 -14.1680 321° Northwest  Level FlightAware Approximate
Sat 06:35:52 AM 57.5778 -14.3656 321° Northwest  Level FlightAware Approximate
Sat 06:36:52 AM 57.6325 -14.5637 321° Northwest  Level FlightAware Approximate
Sat 06:37:52 AM 57.6869 -14.7625 321° Northwest  Level FlightAware Approximate
Sat 06:38:52 AM 57.7410 -14.9619 321° Northwest  Level FlightAware Approximate
Sat 06:39:52 AM 57.7947 -15.1618 321° Northwest  Level FlightAware Approximate
Sat 06:40:52 AM 57.8509 -15.3598 321° Northwest  Level FlightAware Approximate
Sat 06:41:52 AM 57.9067 -15.5583 321° Northwest  Level FlightAware Approximate
Sat 06:42:52 AM 57.9622 -15.7575 321° Northwest  Level FlightAware Approximate
Sat 06:43:52 AM 58.0174 -15.9573 320° Northwest  Level FlightAware Approximate
Sat 06:44:52 AM 58.0723 -16.1577 320° Northwest  Level FlightAware Approximate
Sat 06:45:52 AM 58.1269 -16.3588 320° Northwest  Level FlightAware Approximate
Sat 06:46:52 AM 58.1812 -16.5604 320° Northwest  Level FlightAware Approximate
Sat 06:47:52 AM 58.2351 -16.7627 320° Northwest  Level FlightAware Approximate
Sat 06:48:52 AM 58.2887 -16.9656 320° Northwest  Level FlightAware Approximate
Sat 06:49:52 AM 58.3420 -17.1691 320° Northwest  Level FlightAware Approximate
Sat 06:50:52 AM 58.3950 -17.3732 320° Northwest  Level FlightAware Approximate
Sat 06:51:52 AM 58.4477 -17.5779 320° Northwest  Level FlightAware Approximate
Sat 06:52:52 AM 58.5000 -17.7832 320° Northwest  Level FlightAware Approximate
Sat 06:53:52 AM 58.5520 -17.9891 320° Northwest  Level FlightAware Approximate
Sat 06:54:52 AM 58.6037 -18.1957 320° Northwest  Level FlightAware Approximate
Sat 06:55:52 AM 58.6550 -18.4029 320° Northwest  Level FlightAware Approximate
Sat 06:56:52 AM 58.7060 -18.6106 320° Northwest  Level FlightAware Approximate
Sat 06:57:52 AM 58.7567 -18.8190 320° Northwest  Level FlightAware Approximate
Sat 06:58:52 AM 58.8070 -19.0280 320° Northwest  Level FlightAware Approximate
Sat 06:59:52 AM 58.8570 -19.2376 320° Northwest  Level FlightAware Approximate
Sat 07:00:52 AM 58.9066 -19.4478 320° Northwest  Level FlightAware Approximate
Sat 07:01:52 AM 58.9560 -19.6586 320° Northwest  Level FlightAware Approximate
Sat 07:02:52 AM 59.0049 -19.8699 320° Northwest  Level FlightAware Approximate
Sat 07:03:52 AM 59.0535 -20.0819 320° Northwest  Level FlightAware Approximate
Sat 07:04:52 AM 59.1018 -20.2945 320° Northwest  Level FlightAware Approximate
Sat 07:05:52 AM 59.1497 -20.5077 320° Northwest  Level FlightAware Approximate
Sat 07:06:52 AM 59.1973 -20.7215 320° Northwest  Level FlightAware Approximate
Sat 07:07:52 AM 59.2445 -20.9359 320° Northwest  Level FlightAware Approximate
Sat 07:08:52 AM 59.2914 -21.1509 320° Northwest  Level FlightAware Approximate
Sat 07:09:52 AM 59.3379 -21.3664 320° Northwest  Level FlightAware Approximate
Sat 07:10:52 AM 59.3840 -21.5826 320° Northwest  Level FlightAware Approximate
Sat 07:11:52 AM 59.4299 -21.7993 320° Northwest  Level FlightAware Approximate
Sat 07:12:52 AM 59.4753 -22.0166 320° Northwest  Level FlightAware Approximate
Sat 07:13:52 AM 59.5204 -22.2346 320° Northwest  Level FlightAware Approximate
Sat 07:14:52 AM 59.5651 -22.4530 320° Northwest  Level FlightAware Approximate
Sat 07:15:52 AM 59.6094 -22.6721 320° Northwest  Level FlightAware Approximate
Sat 07:16:52 AM 59.6534 -22.8918 320° Northwest  Level FlightAware Approximate
Sat 07:17:52 AM 59.6970 -23.1120 320° Northwest  Level FlightAware Approximate
Sat 07:18:52 AM 59.7402 -23.3328 320° Northwest  Level FlightAware Approximate
Sat 07:19:52 AM 59.7831 -23.5541 320° Northwest  Level FlightAware Approximate
Sat 07:20:52 AM 59.8256 -23.7761 320° Northwest  Level FlightAware Approximate
Sat 07:21:52 AM 59.8677 -23.9985 320° Northwest  Level FlightAware Approximate
Sat 07:22:52 AM 59.9095 -24.2216 320° Northwest  Level FlightAware Approximate
Sat 07:23:52 AM 59.9509 -24.4452 320° Northwest  Level FlightAware Approximate
Sat 07:24:52 AM 59.9919 -24.6694 320° Northwest  Level FlightAware Approximate
Sat 07:25:52 AM 60.0325 -24.8941 320° Northwest  Level FlightAware Approximate
Sat 07:26:52 AM 60.0727 -25.1194 320° Northwest  Level FlightAware Approximate
Sat 07:27:52 AM 60.1125 -25.3452 320° Northwest  Level FlightAware Approximate
Sat 07:28:52 AM 60.1520 -25.5716 320° Northwest  Level FlightAware Approximate
Sat 07:29:52 AM 60.1911 -25.7985 320° Northwest  Level FlightAware Approximate
Sat 07:30:52 AM 60.2297 -26.0259 320° Northwest  Level FlightAware Approximate
Sat 07:31:52 AM 60.2680 -26.2539 320° Northwest  Level FlightAware Approximate
Sat 07:32:52 AM 60.3059 -26.4824 320° Northwest  Level FlightAware Approximate
Sat 07:33:52 AM 60.3434 -26.7114 320° Northwest  Level FlightAware Approximate
Sat 07:34:52 AM 60.3806 -26.9410 320° Northwest  Level FlightAware Approximate
Sat 07:35:52 AM 60.4173 -27.1711 320° Northwest  Level FlightAware Approximate
Sat 07:36:52 AM 60.4536 -27.4017 321° Northwest  Level FlightAware Approximate
Sat 07:37:52 AM 60.4895 -27.6328 321° Northwest  Level FlightAware Approximate
Sat 07:38:52 AM 60.5250 -27.8644 321° Northwest  Level FlightAware Approximate
Sat 07:39:52 AM 60.5602 -28.0965 321° Northwest  Level FlightAware Approximate
Sat 07:40:52 AM 60.5949 -28.3292 321° Northwest  Level FlightAware Approximate
Sat 07:41:52 AM 60.6292 -28.5623 321° Northwest  Level FlightAware Approximate
Sat 07:42:52 AM 60.6631 -28.7959 321° Northwest  Level FlightAware Approximate
Sat 07:43:52 AM 60.6966 -29.0300 321° Northwest  Level FlightAware Approximate
Sat 07:44:52 AM 60.7297 -29.2646 321° Northwest  Level FlightAware Approximate
Sat 07:45:52 AM 60.7624 -29.4997 321° Northwest  Level FlightAware Approximate
Sat 07:46:52 AM 60.7946 -29.7353 321° Northwest  Level FlightAware Approximate
Sat 07:47:52 AM 60.8268 -29.9711 321° Northwest  Level FlightAware Approximate
Sat 07:48:52 AM 60.8586 -30.2074 322° Northwest  Level FlightAware Approximate
Sat 07:49:52 AM 60.8899 -30.4442 322° Northwest  Level FlightAware Approximate
Sat 07:50:52 AM 60.9209 -30.6814 322° Northwest  Level FlightAware Approximate
Sat 07:51:52 AM 60.9514 -30.9191 322° Northwest  Level FlightAware Approximate
Sat 07:52:52 AM 60.9815 -31.1573 322° Northwest  Level FlightAware Approximate
Sat 07:53:52 AM 61.0112 -31.3959 322° Northwest  Level FlightAware Approximate
Sat 07:54:52 AM 61.0404 -31.6349 322° Northwest  Level FlightAware Approximate
Sat 07:55:52 AM 61.0693 -31.8744 322° Northwest  Level FlightAware Approximate
Sat 07:56:52 AM 61.0977 -32.1143 323° Northwest  Level FlightAware Approximate
Sat 07:57:52 AM 61.1257 -32.3547 323° Northwest  Level FlightAware Approximate
Sat 07:58:52 AM 61.1532 -32.5955 323° Northwest  Level FlightAware Approximate
Sat 07:59:52 AM 61.1804 -32.8366 323° Northwest  Level FlightAware Approximate
Sat 08:00:52 AM 61.2071 -33.0782 323° Northwest  Level FlightAware Approximate
Sat 08:01:52 AM 61.2333 -33.3202 323° Northwest  Level FlightAware Approximate
Sat 08:02:52 AM 61.2592 -33.5626 323° Northwest  Level FlightAware Approximate
Sat 08:03:52 AM 61.2845 -33.8055 324° Northwest  Level FlightAware Approximate
Sat 08:04:52 AM 61.3095 -34.0486 324° Northwest  Level FlightAware Approximate
Sat 08:05:52 AM 61.3340 -34.2922 324° Northwest  Level FlightAware Approximate
Sat 08:06:52 AM 61.3582 -34.5362 324° Northwest  Level FlightAware Approximate
Sat 08:07:52 AM 61.3818 -34.7805 324° Northwest  Level FlightAware Approximate
Sat 08:08:52 AM 61.4050 -35.0252 325° Northwest  Level FlightAware Approximate
Sat 08:09:52 AM 61.4278 -35.2702 325° Northwest  Level FlightAware Approximate
Sat 08:10:52 AM 61.4501 -35.5157 325° Northwest  Level FlightAware Approximate
Sat 08:11:52 AM 61.4720 -35.7614 325° Northwest  Level FlightAware Approximate
Sat 08:12:52 AM 61.4935 -36.0075 326° Northwest  Level FlightAware Approximate
Sat 08:13:52 AM 61.5145 -36.2539 326° Northwest  Level FlightAware Approximate
Sat 08:14:52 AM 61.5351 -36.5007 326° Northwest  Level FlightAware Approximate
Sat 08:15:52 AM 61.5552 -36.7478 326° Northwest  Level FlightAware Approximate
Sat 08:16:52 AM 61.5749 -36.9952 327° Northwest  Level FlightAware Approximate
Sat 08:17:52 AM 61.5941 -37.2429 327° Northwest  Level FlightAware Approximate
Sat 08:18:52 AM 61.6129 -37.4909 327° Northwest  Level FlightAware Approximate
Sat 08:19:52 AM 61.6312 -37.7393 327° Northwest  Level FlightAware Approximate
Sat 08:20:52 AM 61.6491 -37.9879 328° Northwest  Level FlightAware Approximate
Sat 08:21:52 AM 61.6665 -38.2368 328° Northwest  Level FlightAware Approximate
Sat 08:22:52 AM 61.6835 -38.4859 328° Northwest  Level FlightAware Approximate
Sat 08:23:52 AM 61.7000 -38.7354 329° Northwest  Level FlightAware Approximate
Sat 08:24:52 AM 61.7161 -38.9851 329° Northwest  Level FlightAware Approximate
Sat 08:25:52 AM 61.7317 -39.2350 329° Northwest  Level FlightAware Approximate
Sat 08:26:52 AM 61.7468 -39.4852 330° Northwest  Level FlightAware Approximate
Sat 08:27:52 AM 61.7615 -39.7357 330° Northwest  Level FlightAware Approximate
Sat 08:28:52 AM 61.7758 -39.9864 330° Northwest  Level FlightAware Approximate
Sat 08:29:52 AM 61.7896 -40.2373 331° Northwest  Level FlightAware Approximate
Sat 08:30:52 AM 61.8029 -40.4884 331° Northwest  Level FlightAware Approximate
Sat 08:31:52 AM 61.8158 -40.7398 331° Northwest  Level FlightAware Approximate
Sat 08:32:52 AM 61.8282 -40.9913 332° Northwest  Level FlightAware Approximate
Sat 08:33:52 AM 61.8401 -41.2431 332° Northwest  Level FlightAware Approximate
Sat 08:34:52 AM 61.8516 -41.4951 333° Northwest  Level FlightAware Approximate
Sat 08:35:52 AM 61.8627 -41.7472 333° Northwest  Level FlightAware Approximate
Sat 08:36:52 AM 61.8732 -41.9995 334° Northwest  Level FlightAware Approximate
Sat 08:37:52 AM 61.8833 -42.2520 334° Northwest  Level FlightAware Approximate
Sat 08:38:52 AM 61.8930 -42.5047 334° Northwest  Level FlightAware Approximate
Sat 08:39:52 AM 61.9021 -42.7575 335° Northwest  Level FlightAware Approximate
Sat 08:40:52 AM 61.9109 -43.0104 335° Northwest  Level FlightAware Approximate
Sat 08:41:52 AM 61.9191 -43.2635 336° Northwest  Level FlightAware Approximate
Sat 08:42:52 AM 61.9269 -43.5167 336° Northwest  Level FlightAware Approximate
Sat 08:43:52 AM 61.9342 -43.7701 337° Northwest  Level FlightAware Approximate
Sat 08:44:52 AM 61.9411 -44.0235 337° Northwest  Level FlightAware Approximate
Sat 08:45:52 AM 61.9475 -44.2771 338° Northwest  Level FlightAware Approximate
Sat 08:46:52 AM 61.9534 -44.5308 338° Northwest  Level FlightAware Approximate
Sat 08:47:52 AM 61.9588 -44.7846 339° North  Level FlightAware Approximate
Sat 08:48:52 AM 61.9638 -45.0384 339° North  Level FlightAware Approximate
Sat 08:49:52 AM 61.9683 -45.2924 340° North  Level FlightAware Approximate
Sat 08:50:52 AM 61.9724 -45.5464 341° North  Level FlightAware Approximate
Sat 08:51:52 AM 61.9760 -45.8004 341° North  Level FlightAware Approximate
Sat 08:52:52 AM 61.9791 -46.0546 342° North  Level FlightAware Approximate
Sat 08:53:52 AM 61.9818 -46.3088 342° North  Level FlightAware Approximate
Sat 08:54:28 AM 69.3833 -53.1167 288° West 490 564 32,000  Level Edmonton Center
Sat 08:59:28 AM 69.5833 -54.9167 285° West 490 564 32,000  Level Edmonton Center
Sat 09:00:28 AM 69.6167 -55.2667 285° West 480 552 32,000  Level Edmonton Center
Sat 09:01:28 AM 69.6500 -55.6333 285° West 480 552 32,000  Level Edmonton Center
Sat 09:02:28 AM 69.6833 -56.0000 292° West 480 552 32,000  Level Edmonton Center
Sat 09:03:28 AM 69.7333 -56.3667 285° West 480 552 32,000  Level Edmonton Center
Sat 09:04:28 AM 69.7667 -56.7333 284° West 480 552 32,000  Level Edmonton Center
Sat 09:05:28 AM 69.8000 -57.1167 278° West 480 552 32,000  Level Edmonton Center
Sat 09:06:28 AM 69.8167 -57.4833 286° West 480 552 32,000  Level Edmonton Center
Sat 09:07:28 AM 69.8500 -57.8167 278° West 480 552 32,000  Level Edmonton Center
Sat 09:08:28 AM 69.8667 -58.1833 284° West 470 541 32,000  Level Edmonton Center
Sat 09:09:28 AM 69.9000 -58.5667 285° West 470 541 32,000  Level Edmonton Center
Sat 09:10:28 AM 69.9333 -58.9333 284° West 470 541 32,000  Level Edmonton Center
Sat 09:11:28 AM 69.9667 -59.3167 278° West 470 541 32,000  Level Edmonton Center
Sat 09:12:28 AM 69.9833 -59.6667 270° West 470 541 32,000  Level Edmonton Center
Sat 09:13:28 AM 69.9833 -60.0333 263° West 470 541 32,000  Level Edmonton Center
Sat 09:14:28 AM 69.9667 -60.4333 270° West 470 541 32,000  Level Edmonton Center
Sat 09:15:28 AM 69.9667 -60.7833 270° West 460 529 32,000  Level Edmonton Center
Sat 09:16:28 AM 69.9667 -61.1500 263° West 460 529 32,000  Level Edmonton Center
Sat 09:17:28 AM 69.9500 -61.5167 270° West 460 529 32,000  Level Edmonton Center
Sat 09:18:28 AM 69.9500 -61.9000 263° West 460 529 32,000  Level Edmonton Center
Sat 09:19:28 AM 69.9333 -62.2667 263° West 470 541 32,000  Level Edmonton Center
Sat 09:20:28 AM 69.9167 -62.6333 270° West 460 529 32,000  Level Edmonton Center
Sat 09:21:28 AM 69.9167 -63.0167 262° West 460 529 32,000  Level Edmonton Center
Sat 09:22:28 AM 69.9000 -63.3500 270° West 460 529 32,000  Level Edmonton Center
Sat 09:23:28 AM 69.9000 -63.7167 255° West 460 529 32,000  Level Edmonton Center
Sat 09:24:28 AM 69.8667 -64.0833 270° West 460 529 32,000  Level Edmonton Center
Sat 09:25:28 AM 69.8667 -64.4667 262° West 460 529 32,000  Level Edmonton Center
Sat 09:26:28 AM 69.8500 -64.8000 263° West 460 529 32,000  Level Edmonton Center
Sat 09:27:28 AM 69.8333 -65.2000 254° West 460 529 32,000  Level Edmonton Center
Sat 09:28:28 AM 69.8000 -65.5333 270° West 460 529 32,000  Level Edmonton Center
Sat 09:29:28 AM 69.8000 -65.9000 264° West 460 529 32,000 100 Level Edmonton Center
Sat 09:30:28 AM 69.7833 -66.3167 254° West 470 541 32,200 750 Climbing Edmonton Center
Sat 09:31:28 AM 69.7500 -66.6500 263° West 470 541 33,500 900 Climbing Edmonton Center
Sat 09:32:28 AM 69.7333 -67.0333 263° West 480 552 34,000 250 Climbing Edmonton Center
Sat 09:33:28 AM 69.7167 -67.4167 263° West 480 552 34,000  Level Edmonton Center
Sat 09:34:28 AM 69.7000 -67.8167 253° West 480 552 34,000  Level Edmonton Center
Sat 09:35:28 AM 69.6667 -68.1333 263° West 480 552 34,000  Level Edmonton Center
Sat 09:36:28 AM 69.6500 -68.5333 257° West 490 564 34,000  Level Edmonton Center
Sat 09:37:28 AM 69.6167 -68.9333 263° West 490 564 34,000  Level Edmonton Center
Sat 09:38:28 AM 69.6000 -69.3000 257° West 490 564 34,000  Level Edmonton Center
Sat 09:39:28 AM 69.5667 -69.7000 263° West 490 564 34,000  Level Edmonton Center
Sat 09:40:28 AM 69.5500 -70.0667 255° West 490 564 34,000  Level Edmonton Center
Sat 09:41:28 AM 69.5167 -70.4167 256° West 480 552 34,000  Level Edmonton Center
Sat 09:42:28 AM 69.4833 -70.7833 256° West 480 552 34,000  Level Edmonton Center
Sat 09:43:28 AM 69.4500 -71.1667 256° West 490 564 34,000  Level Edmonton Center
Sat 09:44:28 AM 69.4167 -71.5500 263° West 490 564 34,000  Level Edmonton Center
Sat 09:45:28 AM 69.4000 -71.9167 256° West 490 564 34,000  Level Edmonton Center
Sat 09:46:28 AM 69.3667 -72.3000 256° West 490 564 34,000  Level Edmonton Center
Sat 09:47:28 AM 69.3333 -72.6667 256° West 490 564 34,000  Level Edmonton Center
Sat 09:48:28 AM 69.3000 -73.0500 248° West 490 564 34,000  Level Edmonton Center
Sat 09:49:28 AM 69.2500 -73.4000 263° West 490 564 34,000  Level Edmonton Center
Sat 09:50:28 AM 69.2333 -73.7500 250° West 490 564 34,000  Level Edmonton Center
Sat 09:51:28 AM 69.1833 -74.1333 256° West 490 564 34,000  Level Edmonton Center
Sat 09:52:28 AM 69.1500 -74.5167 250° West 490 564 34,000  Level Edmonton Center
Sat 09:53:28 AM 69.1000 -74.9000 263° West 490 564 34,000  Level Edmonton Center
Sat 09:54:28 AM 69.0833 -75.2500 250° West 500 575 34,000  Level Edmonton Center
Sat 09:55:28 AM 69.0333 -75.6333 249° West 500 575 34,000  Level Edmonton Center
Sat 09:56:28 AM 68.9833 -76.0000 255° West 500 575 34,000  Level Edmonton Center
Sat 09:57:28 AM 68.9500 -76.3500 257° West 500 575 34,000  Level Edmonton Center
Sat 09:58:28 AM 68.9167 -76.7333 249° West 500 575 34,000  Level Edmonton Center
Sat 09:59:28 AM 68.8667 -77.1000 249° West 500 575 34,000  Level Edmonton Center
Sat 10:00:28 AM 68.8167 -77.4667 255° West 500 575 34,000  Level Edmonton Center
Sat 10:01:28 AM 68.7833 -77.8167 250° West 500 575 34,000  Level Edmonton Center
Sat 10:02:28 AM 68.7333 -78.1833 250° West 500 575 34,000  Level Edmonton Center
Sat 10:03:28 AM 68.6833 -78.5500 250° West 500 575 34,000  Level Edmonton Center
Sat 10:04:28 AM 68.6333 -78.9167 255° West 500 575 34,000  Level Edmonton Center
Sat 10:05:28 AM 68.6000 -79.2500 244° Southwest 500 575 34,000  Level Edmonton Center
Sat 10:06:28 AM 68.5333 -79.6167 249° West 500 575 34,000  Level Edmonton Center
Sat 10:07:28 AM 68.4833 -79.9667 257° West 500 575 34,000  Level Edmonton Center
Sat 10:08:28 AM 68.4500 -80.3500 250° West 500 575 34,000  Level Edmonton Center
Sat 10:09:28 AM 68.4000 -80.7167 257° West 500 575 34,000  Level Edmonton Center
Sat 10:10:28 AM 68.3667 -81.1000 256° West 510 587 34,000  Level Edmonton Center
Sat 10:11:28 AM 68.3333 -81.4667 243° Southwest 510 587 34,000  Level Edmonton Center
Sat 10:12:28 AM 68.2667 -81.8167 257° West 510 587 34,000  Level Edmonton Center
Sat 10:13:28 AM 68.2333 -82.2000 249° West 510 587 34,000  Level Edmonton Center
Sat 10:14:28 AM 68.1833 -82.5500 250° West 510 587 34,000  Level Edmonton Center
Sat 10:15:28 AM 68.1333 -82.9167 255° West 510 587 34,000  Level Edmonton Center
Sat 10:16:28 AM 68.1000 -83.2500 245° Southwest 510 587 34,000  Level Edmonton Center
Sat 10:17:28 AM 68.0333 -83.6333 248° West 510 587 34,000  Level Edmonton Center
Sat 10:18:28 AM 67.9833 -83.9667 251° West 510 587 34,000  Level Edmonton Center
Sat 10:19:28 AM 67.9333 -84.3500 250° West 510 587 34,000  Level Edmonton Center
Sat 10:20:28 AM 67.8833 -84.7167 248° West 510 587 34,000  Level Edmonton Center
Sat 10:21:28 AM 67.8333 -85.0500 250° West 510 587 34,000  Level Edmonton Center
Sat 10:22:28 AM 67.7833 -85.4167 248° West 510 587 34,000  Level Edmonton Center
Sat 10:23:28 AM 67.7333 -85.7333 246° West 510 587 34,000  Level Edmonton Center
Sat 10:24:28 AM 67.6667 -86.1167 248° West 510 587 34,000  Level Edmonton Center
Sat 10:25:28 AM 67.6167 -86.4333 245° Southwest 510 587 34,000  Level Edmonton Center
Sat 10:26:28 AM 67.5500 -86.8000 248° West 510 587 34,000  Level Edmonton Center
Sat 10:27:28 AM 67.5000 -87.1167 250° West 500 575 34,000  Level Edmonton Center
Sat 10:28:28 AM 67.4500 -87.4667 243° Southwest 500 575 34,000  Level Edmonton Center
Sat 10:29:28 AM 67.3833 -87.8000 250° West 500 575 34,000  Level Edmonton Center
Sat 10:30:28 AM 67.3333 -88.1500 248° West 500 575 34,000  Level Edmonton Center
Sat 10:31:28 AM 67.2833 -88.4667 244° Southwest 500 575 34,000  Level Edmonton Center
Sat 10:32:28 AM 67.2167 -88.8167 242° Southwest 510 587 34,000  Level Edmonton Center
Sat 10:33:28 AM 67.1500 -89.1333 249° West 510 587 34,000  Level Edmonton Center
Sat 10:34:28 AM 67.1000 -89.4667 242° Southwest 510 587 34,000  Level Edmonton Center
Sat 10:35:28 AM 67.0333 -89.7833 236° Southwest 510 587 34,000  Level Edmonton Center
Sat 10:44:44 AM 66.2667 -92.4833 232° Southwest 500 575 34,000  Level Edmonton Center
Sat 10:49:44 AM 65.8167 -93.8667 231° Southwest 500 575 34,000  Level Edmonton Center
Sat 10:50:44 AM 65.7333 -94.1167 235° Southwest 500 575 34,000  Level Edmonton Center
Sat 10:51:44 AM 65.6500 -94.4000 229° Southwest 500 575 34,000  Level Edmonton Center
Sat 10:52:44 AM 65.5667 -94.6333 231° Southwest 500 575 34,000  Level Edmonton Center
Sat 10:53:44 AM 65.4667 -94.9333 229° Southwest 500 575 34,000  Level Edmonton Center
Sat 10:54:44 AM 65.3833 -95.1667 224° Southwest 500 575 34,000  Level Edmonton Center
Sat 10:55:44 AM 65.2833 -95.4000 235° Southwest 500 575 34,000  Level Edmonton Center
Sat 10:56:44 AM 65.2000 -95.6833 225° Southwest 500 575 34,000  Level Edmonton Center
Sat 10:57:44 AM 65.1000 -95.9167 234° Southwest 500 575 34,000  Level Edmonton Center
Sat 10:58:44 AM 65.0167 -96.1833 225° Southwest 500 575 34,000  Level Edmonton Center
Sat 10:59:44 AM 64.9167 -96.4167 234° Southwest 500 575 34,000  Level Edmonton Center
Sat 11:00:44 AM 64.8333 -96.6833 230° Southwest 490 564 34,000  Level Edmonton Center
Sat 11:01:44 AM 64.7500 -96.9167 224° Southwest 490 564 34,000  Level Edmonton Center
Sat 11:02:44 AM 64.6333 -97.1833 228° Southwest 500 575 34,000  Level Edmonton Center
Sat 11:03:44 AM 64.5500 -97.4000 225° Southwest 490 564 34,000  Level Edmonton Center
Sat 11:04:44 AM 64.4500 -97.6333 232° Southwest 490 564 34,000  Level Edmonton Center
Sat 11:05:44 AM 64.3667 -97.8833 229° Southwest 490 564 34,000  Level Edmonton Center
Sat 11:06:44 AM 64.2833 -98.1000 229° Southwest 490 564 34,000  Level Edmonton Center
Sat 11:07:44 AM 64.1833 -98.3667 229° Southwest 490 564 34,000  Level Edmonton Center
Sat 11:08:44 AM 64.1000 -98.5833 219° Southwest 490 564 34,000  Level Edmonton Center
Sat 11:09:44 AM 63.9833 -98.8000 233° Southwest 480 552 34,000  Level Edmonton Center
Sat 11:10:44 AM 63.9000 -99.0500 224° Southwest 480 552 34,000  Level Edmonton Center
Sat 11:11:44 AM 63.8000 -99.2667 224° Southwest 480 552 34,000  Level Edmonton Center
Sat 11:12:44 AM 63.7000 -99.4833 233° Southwest 480 552 34,000  Level Edmonton Center
Sat 11:13:44 AM 63.6333 -99.6833 228° Southwest 480 552 34,000  Level Edmonton Center
Sat 11:14:44 AM 63.5333 -99.9333 222° Southwest 470 541 34,000  Level Edmonton Center
Sat 11:15:44 AM 63.4333 -100.1333 224° Southwest 470 541 34,000  Level Edmonton Center
Sat 11:16:44 AM 63.3333 -100.3500 224° Southwest 470 541 34,000  Level Edmonton Center
Sat 11:29:04 AM 62.1667 -102.7000 222° Southwest 450 518 34,000  Level Edmonton Center
Sat 11:34:04 AM 61.6833 -103.6000 216° Southwest 450 518 34,000  Level Edmonton Center
Sat 11:35:04 AM 61.5833 -103.7500 226° Southwest 460 529 34,000  Level Edmonton Center
Sat 11:36:04 AM 61.5000 -103.9333 219° Southwest 460 529 34,000  Level Edmonton Center
Sat 11:37:04 AM 61.4000 -104.1000 217° Southwest 460 529 34,000  Level Edmonton Center
Sat 11:38:04 AM 61.2833 -104.2833 227° Southwest 460 529 34,000  Level Edmonton Center
Sat 11:39:04 AM 61.2000 -104.4667 219° Southwest 460 529 34,000  Level Edmonton Center
Sat 11:40:04 AM 61.1000 -104.6333 222° Southwest 460 529 34,000  Level Edmonton Center
Sat 11:41:04 AM 61.0000 -104.8167 217° Southwest 460 529 34,000  Level Edmonton Center
Sat 11:42:04 AM 60.8833 -105.0000 213° Southwest 460 529 34,000  Level Edmonton Center
Sat 11:43:04 AM 60.7833 -105.1333 219° Southwest 460 529 34,000  Level Edmonton Center
Sat 11:44:04 AM 60.6833 -105.3000 222° Southwest 460 529 34,000  Level Edmonton Center
Sat 11:45:04 AM 60.5833 -105.4833 219° Southwest 460 529 34,000  Level Edmonton Center
Sat 11:46:04 AM 60.4833 -105.6500 220° Southwest 460 529 34,000  Level Edmonton Center
Sat 11:47:04 AM 60.3833 -105.8167 225° Southwest 460 529 34,000  Level Edmonton Center
Sat 11:48:04 AM 60.3000 -105.9833 210° Southwest 460 529 34,000  Level Edmonton Center
Sat 11:49:04 AM 60.1833 -106.1167 221° Southwest 460 529 34,000  Level Edmonton Center
Sat 11:50:04 AM 60.0667 -106.3167 220° Southwest 470 541 34,000  Level Edmonton Center
Sat 11:51:04 AM 59.9667 -106.4833 220° Southwest 470 541 34,000  Level Edmonton Center
Sat 11:52:04 AM 59.8667 -106.6500 220° Southwest 470 541 34,000  Level Edmonton Center
Sat 11:53:04 AM 59.7667 -106.8167 213° Southwest 470 541 34,000  Level Edmonton Center
Sat 11:54:04 AM 59.6500 -106.9667 214° Southwest 470 541 34,000  Level Edmonton Center
Sat 11:55:04 AM 59.5500 -107.1000 220° Southwest 470 541 34,000  Level Edmonton Center
Sat 11:56:04 AM 59.4500 -107.2667 213° Southwest 470 541 34,000  Level Edmonton Center
Sat 11:57:04 AM 59.3333 -107.4167 220° Southwest 470 541 34,000  Level Edmonton Center
Sat 11:58:04 AM 59.2333 -107.5833 218° Southwest 470 541 34,000  Level Edmonton Center
Sat 11:59:04 AM 59.1333 -107.7333 221° Southwest 470 541 34,000  Level Edmonton Center
Sat 12:00:04 PM 59.0333 -107.9000 214° Southwest 470 541 34,000  Level Edmonton Center
Sat 12:01:04 PM 58.9167 -108.0500 218° Southwest 470 541 34,000  Level Edmonton Center
Sat 12:02:04 PM 58.8167 -108.2000 218° Southwest 470 541 34,000  Level Edmonton Center
Sat 12:03:04 PM 58.7167 -108.3500 217° Southwest 470 541 34,000  Level Edmonton Center
Sat 12:04:04 PM 58.6000 -108.5167 218° Southwest 480 552 34,000  Level Edmonton Center
Sat 12:05:04 PM 58.5000 -108.6667 216° Southwest 480 552 34,000  Level Edmonton Center
Sat 12:06:04 PM 58.3667 -108.8500 218° Southwest 480 552 34,000  Level Edmonton Center
Sat 12:07:04 PM 58.2667 -109.0000 218° Southwest 480 552 34,000  Level Edmonton Center
Sat 12:08:04 PM 58.1667 -109.1500 211° Southwest 490 564 34,000  Level Edmonton Center
Sat 12:09:04 PM 58.0500 -109.2833 214° Southwest 490 564 34,000  Level Edmonton Center
Sat 12:10:04 PM 57.9333 -109.4333 214° Southwest 490 564 34,000  Level Edmonton Center
Sat 12:11:04 PM 57.8167 -109.5833 224° Southwest 480 552 34,000  Level Edmonton Center
Sat 12:12:04 PM 57.7167 -109.7667 205° Southwest 480 552 34,000  Level Edmonton Center
Sat 12:13:04 PM 57.6000 -109.8667 225° Southwest 480 552 34,000  Level Edmonton Center
Sat 12:14:04 PM 57.5000 -110.0500 205° Southwest 470 541 34,000  Level Edmonton Center
Sat 12:15:04 PM 57.3833 -110.1500 219° Southwest 460 529 34,000  Level Edmonton Center
Sat 12:16:04 PM 57.2833 -110.3000 212° Southwest 460 529 34,000  Level Edmonton Center
Sat 12:17:04 PM 57.1667 -110.4333 224° Southwest 460 529 34,000  Level Edmonton Center
Sat 12:18:04 PM 57.0833 -110.5833 209° Southwest 460 529 34,000  Level Edmonton Center
Sat 12:19:04 PM 56.9500 -110.7167 225° Southwest 460 529 34,000  Level Edmonton Center
Sat 12:20:04 PM 56.8667 -110.8667 212° Southwest 460 529 34,000  Level Edmonton Center
Sat 12:21:04 PM 56.7500 -111.0000 209° Southwest 460 529 34,000  Level Edmonton Center
Sat 12:22:04 PM 56.6500 -111.1000 209° Southwest 460 529 34,000  Level Edmonton Center
Sat 12:23:04 PM 56.5167 -111.2333 213° Southwest 460 529 34,000  Level Edmonton Center
Sat 12:24:04 PM 56.4167 -111.3500 198° South 450 518 34,000  Level Edmonton Center
Sat 12:25:04 PM 56.3000 -111.4167 206° Southwest 450 518 34,000  Level Edmonton Center
Sat 12:26:04 PM 56.1833 -111.5167 209° Southwest 440 506 34,000  Level Edmonton Center
Sat 12:27:04 PM 56.0833 -111.6167 202° Southwest 440 506 34,000  Level Edmonton Center
Sat 12:28:04 PM 55.9667 -111.7000 206° Southwest 440 506 34,000  Level Edmonton Center
Sat 12:29:04 PM 55.8500 -111.8000 206° Southwest 440 506 34,000  Level Edmonton Center
Sat 12:30:04 PM 55.7333 -111.9000 209° Southwest 440 506 34,000  Level Edmonton Center
Sat 12:31:04 PM 55.6333 -112.0000 201° Southwest 430 495 34,000  Level Edmonton Center
Sat 12:32:04 PM 55.5333 -112.0667 203° Southwest 430 495 34,000  Level Edmonton Center
Sat 12:33:04 PM 55.4000 -112.1667 210° Southwest 430 495 34,000  Level Edmonton Center
Sat 12:34:04 PM 55.3000 -112.2667 198° South 430 495 34,000 250 Level Edmonton Center
Sat 12:35:04 PM 55.1833 -112.3333 210° Southwest 430 495 34,500 650 Climbing Edmonton Center
Sat 12:36:04 PM 55.0833 -112.4333 203° Southwest 450 518 35,300 750 Climbing Edmonton Center
Sat 12:37:04 PM 54.9500 -112.5333 202° Southwest 460 529 36,000 350 Climbing Edmonton Center
Sat 12:38:04 PM 54.8333 -112.6167 206° Southwest 470 541 36,000  Level Edmonton Center
Sat 12:39:04 PM 54.7167 -112.7167 206° Southwest 470 541 36,000  Level Edmonton Center
Sat 12:40:04 PM 54.6000 -112.8167 200° South 460 529 36,000  Level Edmonton Center
Sat 12:41:04 PM 54.4667 -112.9000 210° Southwest 470 541 36,000  Level Edmonton Center
Sat 12:42:04 PM 54.3667 -113.0000 200° South 470 541 36,000  Level Edmonton Center
Sat 12:43:04 PM 54.2333 -113.0833 207° Southwest 470 541 36,000  Level Edmonton Center
Sat 12:44:04 PM 54.1167 -113.1833 203° Southwest 470 541 36,000  Level Edmonton Center
Sat 12:45:04 PM 54.0000 -113.2667 204° Southwest 470 541 36,000  Level Edmonton Center
Sat 12:46:04 PM 53.8667 -113.3667 203° Southwest 470 541 36,000  Level Edmonton Center
Sat 12:47:04 PM 53.7500 -113.4500 207° Southwest 470 541 36,000  Level Edmonton Center
Sat 12:48:04 PM 53.6333 -113.5500 203° Southwest 470 541 36,000  Level Edmonton Center
Sat 12:49:04 PM 53.5167 -113.6333 200° South 470 541 36,000  Level Edmonton Center
Sat 12:50:04 PM 53.3833 -113.7167 203° Southwest 470 541 36,000  Level Edmonton Center
Sat 12:51:04 PM 53.2667 -113.8000 207° Southwest 460 529 36,000  Level Edmonton Center
Sat 12:52:04 PM 53.1500 -113.9000 203° Southwest 460 529 36,000  Level Edmonton Center
Sat 12:53:04 PM 53.0333 -113.9833 201° Southwest 460 529 36,000  Level Edmonton Center
Sat 12:54:04 PM 52.9000 -114.0667 203° Southwest 460 529 36,000  Level Edmonton Center
Sat 12:55:04 PM 52.7833 -114.1500 199° South 470 541 36,000  Level Edmonton Center
Sat 12:56:04 PM 52.6667 -114.2167 203° Southwest 470 541 36,000  Level Edmonton Center
Sat 12:57:04 PM 52.5500 -114.3000 201° Southwest 470 541 36,000  Level Edmonton Center
Sat 12:58:04 PM 52.4167 -114.3833 201° Southwest 470 541 36,000  Level Edmonton Center
Sat 12:59:04 PM 52.2833 -114.4667 204° Southwest 470 541 36,000  Level Edmonton Center
Sat 01:00:04 PM 52.1667 -114.5500 201° Southwest 480 552 36,000  Level Edmonton Center
Sat 01:01:04 PM 52.0333 -114.6333 189° South 480 552 36,000  Level Edmonton Center
Sat 01:02:46 PM 51.8333 -114.6833 199° South 490 564 36,000  Level Vancouver Center
Sat 01:03:46 PM 51.7167 -114.7500 201° Southwest 490 564 36,000  Level Vancouver Center
Sat 01:04:46 PM 51.5833 -114.8333 201° Southwest 490 564 36,000  Level Vancouver Center
Sat 01:05:46 PM 51.4500 -114.9167 204° Southwest 490 564 36,000  Level Vancouver Center
Sat 01:06:46 PM 51.3333 -115.0000 197° South 490 564 36,000  Level Vancouver Center
Sat 01:07:46 PM 51.2000 -115.0667 204° Southwest 490 564 36,000  Level Vancouver Center
Sat 01:08:46 PM 51.0833 -115.1500 201° Southwest 490 564 36,000  Level Vancouver Center
Sat 01:09:46 PM 50.9500 -115.2333 200° South 490 564 36,000  Level Vancouver Center
Sat 01:10:46 PM 50.8333 -115.3000 199° South 490 564 36,000  Level Vancouver Center
Sat 01:11:46 PM 50.6833 -115.3833 200° South 490 564 36,000  Level Vancouver Center
Sat 01:12:46 PM 50.5667 -115.4500 204° Southwest 490 564 36,000  Level Vancouver Center
Sat 01:13:46 PM 50.4500 -115.5333 198° South 490 564 36,000  Level Vancouver Center
Sat 01:14:46 PM 50.3167 -115.6000 202° Southwest 490 564 36,000  Level Vancouver Center
Sat 01:15:46 PM 50.1833 -115.6833 194° South 490 564 36,000  Level Vancouver Center
Sat 01:16:46 PM 50.0500 -115.7333 198° South 490 564 36,000  Level Vancouver Center
Sat 01:17:46 PM 49.9167 -115.8000 195° South 490 564 36,000  Level Vancouver Center
Sat 01:18:46 PM 49.8000 -115.8500 198° South 490 564 36,000  Level Vancouver Center
Sat 01:19:46 PM 49.6667 -115.9167 194° South 490 564 36,000  Level Vancouver Center
Sat 01:20:46 PM 49.5333 -115.9667 202° Southwest 480 552 36,000  Level Vancouver Center
Sat 01:21:46 PM 49.4000 -116.0500 191° South 490 564 36,000  Level Vancouver Center
Sat 01:22:46 PM 49.2833 -116.0833 194° South 480 552 36,000  Level Vancouver Center
Sat 01:23:46 PM 49.1500 -116.1333 198° South 490 564 36,000  Level Vancouver Center
Sat 01:24:46 PM 49.0167 -116.2000 194° South 490 564 36,000  Level Vancouver Center
Sat 01:25:46 PM 48.8833 -116.2500 198° South 490 564 36,000  Level Vancouver Center
Sat 01:26:46 PM 48.7500 -116.3167 196° South 490 564 36,000  Level Vancouver Center
Sat 01:27:46 PM 48.6333 -116.3667 194° South 490 564 36,000  Level Vancouver Center
Sat 01:28:46 PM 48.5000 -116.4167 198° South 490 564 36,000  Level Vancouver Center
Sat 01:29:46 PM 48.3667 -116.4833 194° South 490 564 36,000  Level Vancouver Center
Sat 01:30:46 PM 48.2333 -116.5333 216° Southwest 490 564 36,000  Level Vancouver Center
Sat 01:31:17 PM 48.1833 -116.5881 195° South 489 563 36,000  Level Seattle Center
Sat 01:32:18 PM 48.0519 -116.6422 195° South 490 564 36,000  Level Seattle Center
Sat 01:33:19 PM 47.9219 -116.6947 195° South 487 560 36,000  Level Seattle Center
Sat 01:34:20 PM 47.7900 -116.7489 196° South 488 562 36,000  Level Seattle Center
Sat 01:35:22 PM 47.6578 -116.8036 196° South 489 563 36,000  Level Seattle Center
Sat 01:36:23 PM 47.5242 -116.8592 195° South 489 563 36,000  Level Seattle Center
Sat 01:37:24 PM 47.3906 -116.9128 195° South 488 562 36,000  Level Seattle Center
Sat 01:38:25 PM 47.2578 -116.9661 195° South 490 564 36,000  Level Seattle Center
Sat 01:39:27 PM 47.1261 -117.0186 195° South 490 564 36,000  Level Seattle Center
Sat 01:40:28 PM 46.9936 -117.0697 195° South 491 565 36,000  Level Seattle Center
Sat 01:41:29 PM 46.8622 -117.1206 196° South 489 563 36,000  Level Seattle Center
Sat 01:42:30 PM 46.7319 -117.1736 195° South 488 562 36,000  Level Seattle Center
Sat 01:43:32 PM 46.6008 -117.2258 195° South 489 563 36,000  Level Seattle Center
Sat 01:44:33 PM 46.4422 -117.2867 195° South 490 564 36,000  Level Seattle Center
Sat 01:45:34 PM 46.3097 -117.3378 195° South 493 567 36,000  Level Seattle Center
Sat 01:46:35 PM 46.1758 -117.3889 195° South 498 573 36,000  Level Seattle Center
Sat 01:47:36 PM 46.0422 -117.4394 195° South 497 572 36,000  Level Seattle Center
Sat 01:48:37 PM 45.9083 -117.4914 195° South 499 574 36,000  Level Seattle Center
Sat 01:49:39 PM 45.7747 -117.5419 195° South 498 573 36,000  Level Seattle Center
Sat 01:50:40 PM 45.6353 -117.5936 195° South 500 575 36,000  Level Seattle Center
Sat 01:51:41 PM 45.5022 -117.6431 195° South 498 573 36,000  Level Seattle Center
Sat 01:52:42 PM 45.3683 -117.6925 195° South 498 573 36,000  Level Seattle Center
Sat 01:53:44 PM 45.2367 -117.7417 194° South 494 568 36,000  Level Seattle Center
Sat 01:54:45 PM 45.0906 -117.7950 195° South 494 568 36,000  Level Seattle Center
Sat 01:55:46 PM 44.9422 -117.8494 194° South 494 568 36,000  Level Seattle Center
Sat 01:56:47 PM 44.8142 -117.8956 195° South 495 570 36,000  Level Seattle Center
Sat 01:57:48 PM 44.6886 -117.9419 195° South 492 566 36,000  Level Seattle Center
Sat 01:58:50 PM 44.5408 -117.9961 194° South 492 566 36,000  Level Seattle Center
Sat 01:59:51 PM 44.4150 -118.0400 194° South 489 563 36,000  Level Seattle Center
Sat 02:00:52 PM 44.2875 -118.0850 195° South 492 566 36,000  Level Seattle Center
Sat 02:01:53 PM 44.1408 -118.1381 194° South 490 564 36,000  Level Seattle Center
Sat 02:02:54 PM 44.0153 -118.1828 194° South 488 562 36,000  Level Seattle Center
Sat 02:03:56 PM 43.8661 -118.2358 195° South 496 571 36,000  Level Seattle Center
Sat 02:04:57 PM 43.7392 -118.2828 194° South 494 568 36,000  Level Seattle Center
Sat 02:05:58 PM 43.6128 -118.3264 193° South 492 566 36,000  Level Seattle Center
Sat 02:06:29 PM 43.5447 -118.3489 194° South 489 563 36,000  Level Salt Lake Center
Sat 02:06:59 PM 43.4644 -118.3772 194° South 492 566 36,000  Level Seattle Center
Sat 02:08:00 PM 43.3389 -118.4208 193° South 489 563 36,000  Level Seattle Center
Sat 02:08:33 PM 43.2811 -118.4389 194° South 488 562 36,000  Level Salt Lake Center
Sat 02:09:35 PM 43.1236 -118.4928 194° South 488 562 36,000  Level Salt Lake Center
Sat 02:10:38 PM 42.9922 -118.5383 194° South 489 563 36,000  Level Salt Lake Center
Sat 02:11:40 PM 42.8608 -118.5822 194° South 488 562 36,000  Level Salt Lake Center
Sat 02:12:42 PM 42.7303 -118.6278 194° South 486 559 36,000  Level Salt Lake Center
Sat 02:13:44 PM 42.5731 -118.6794 194° South 487 560 36,000  Level Salt Lake Center
Sat 02:14:46 PM 42.4356 -118.7258 194° South 487 560 36,000  Level Salt Lake Center
Sat 02:15:49 PM 42.3022 -118.7700 194° South 486 559 36,000  Level Salt Lake Center
Sat 02:16:51 PM 42.1783 -118.8119 194° South 482 555 36,000  Level Salt Lake Center
Sat 02:17:53 PM 42.0328 -118.8597 194° South 482 555 36,000  Level Salt Lake Center
Sat 02:18:55 PM 41.9069 -118.9014 194° South 484 557 36,000  Level Salt Lake Center
Sat 02:19:58 PM 41.7625 -118.9486 194° South 481 554 36,000  Level Salt Lake Center
Sat 02:21:00 PM 41.6356 -118.9903 194° South 485 558 36,000  Level Salt Lake Center
Sat 02:22:02 PM 41.5097 -119.0319 194° South 487 560 36,000  Level Salt Lake Center
Sat 02:23:04 PM 41.3658 -119.0794 194° South 482 555 36,000  Level Salt Lake Center
Sat 02:24:07 PM 41.2469 -119.1183 193° South 470 541 36,000  Level Salt Lake Center
Sat 02:25:09 PM 41.1092 -119.1622 193° South 461 531 36,000  Level Salt Lake Center
Sat 02:26:11 PM 40.9917 -119.1992 193° South 456 525 36,000  Level Salt Lake Center
Sat 02:27:13 PM 40.8556 -119.2422 194° South 452 520 36,000  Level Salt Lake Center
Sat 02:28:15 PM 40.7378 -119.2808 193° South 454 522 36,000  Level Salt Lake Center
Sat 02:29:17 PM 40.6025 -119.3231 193° South 451 519 36,000  Level Salt Lake Center
Sat 02:30:20 PM 40.4781 -119.3617 194° South 450 518 36,000  Level Salt Lake Center
Sat 02:31:13 PM 40.3589 -119.4017 192° South 453 521 36,000  Level Oakland Center
Sat 02:32:14 PM 40.2364 -119.4369 195° South 453 521 36,000  Level Oakland Center
Sat 02:33:13 PM 40.1161 -119.4778 193° South 453 521 36,000  Level Oakland Center
Sat 02:34:13 PM 39.9936 -119.5156 194° South 453 521 36,000 -50 Level Oakland Center
Sat 02:35:13 PM 39.8731 -119.5533 192° South 453 521 35,900 -400 Descending Oakland Center
Sat 02:36:13 PM 39.7506 -119.5881 193° South 453 521 35,200 -446 Descending Oakland Center
Sat 02:37:14 PM 39.6300 -119.6256 192° South 453 521 35,000 -99 Descending Oakland Center
Sat 02:38:14 PM 39.5094 -119.6575 179° South 453 521 35,000  Level Oakland Center
Sat 02:39:13 PM 39.3758 -119.6544 179° South 458 527 35,000  Level Oakland Center
Sat 02:40:13 PM 39.2444 -119.6517 179° South 468 539 35,000  Level Oakland Center
Sat 02:41:14 PM 39.1111 -119.6486 178° South 473 544 35,000  Level Oakland Center
Sat 02:42:13 PM 38.9839 -119.6431 178° South 473 544 35,000  Level Oakland Center
Sat 02:43:13 PM 38.8544 -119.6375 180° South 473 544 35,000  Level Oakland Center
Sat 02:44:13 PM 38.7250 -119.6372 178° South 468 539 35,000  Level Oakland Center
Sat 02:45:14 PM 38.5958 -119.6317 179° South 468 539 35,000  Level Oakland Center
Sat 02:46:14 PM 38.4664 -119.6286 177° South 468 539 35,000  Level Oakland Center
Sat 02:47:14 PM 38.3411 -119.6206 178° South 463 533 35,000  Level Oakland Center
Sat 02:48:14 PM 38.2117 -119.6150 179° South 458 527 35,000  Level Oakland Center
Sat 02:49:13 PM 38.0825 -119.6119 179° South 463 533 35,000  Level Oakland Center
Sat 02:50:13 PM 37.9531 -119.6092 179° South 463 533 35,000  Level Oakland Center
Sat 02:51:15 PM 37.8236 -119.6064 178° South 463 533 35,000  Level Oakland Center
Sat 02:52:14 PM 37.6986 -119.6008 179° South 458 527 35,000  Level Oakland Center
Sat 02:53:14 PM 37.5692 -119.5978 183° South 458 527 35,000  Level Oakland Center
Sat 02:54:14 PM 37.4294 -119.6056 180° South 481 554 35,000  Level Oakland Center
Sat 02:55:13 PM 37.3189 -119.6050 179° South 481 554 35,000  Level Oakland Center
Sat 02:56:13 PM 37.1917 -119.6022 178° South 459 528 35,000  Level Oakland Center
Sat 02:57:13 PM 37.0642 -119.5967 183° South 459 528 35,000  Level Oakland Center
Sat 02:58:14 PM 36.9372 -119.6042 181° South 459 528 35,000  Level Oakland Center
Sat 02:59:14 PM 36.8058 -119.6067 180° South 459 528 35,000  Level Oakland Center
Sat 03:00:13 PM 36.6786 -119.6064 181° South 459 528 35,000  Level Oakland Center
Sat 03:01:14 PM 36.5472 -119.6086 181° South 459 528 35,000  Level Oakland Center
Sat 03:03:32 PM 36.2350 -119.6125 180° South 463 533 35,000  Level Los Angeles Center
Sat 03:04:32 PM 36.1036 -119.6119 181° South 463 533 35,000  Level Los Angeles Center
Sat 03:05:32 PM 35.9761 -119.6139 182° South 463 533 35,000  Level Los Angeles Center
Sat 03:06:32 PM 35.8447 -119.6186 182° South 463 533 35,000  Level Los Angeles Center
Sat 03:07:32 PM 35.7172 -119.6233 182° South 463 533 35,000 -50 Level Los Angeles Center
Sat 03:08:32 PM 35.5878 -119.6281 182° South 463 533 34,900 -950 Descending Los Angeles Center
Sat 03:09:32 PM 35.4686 -119.6331 182° South 451 519 33,100 -2,200 Descending Los Angeles Center
Sat 03:10:32 PM 35.3494 -119.6381 172° South 439 505 30,500 -1,800 Descending Los Angeles Center
Sat 03:11:32 PM 35.2292 -119.6178 145° Southeast 439 505 29,500 -1,050 Descending Los Angeles Center
Sat 03:12:32 PM 35.1294 -119.5322 145° Southeast 417 480 28,400 -1,350 Descending Los Angeles Center
Sat 03:13:32 PM 35.0314 -119.4469 146° Southeast 423 487 26,800 -1,550 Descending Los Angeles Center
Sat 03:14:32 PM 34.9356 -119.3669 146° Southeast 428 493 25,300 -1,500 Descending Los Angeles Center
Sat 03:15:32 PM 34.8436 -119.2900 145° Southeast 417 480 23,800 -1,450 Descending Los Angeles Center
Sat 03:16:32 PM 34.7558 -119.2158 146° Southeast 406 467 22,400 -1,500 Descending Los Angeles Center
Sat 03:17:32 PM 34.6658 -119.1419 147° Southeast 400 460 20,800 -1,450 Descending Los Angeles Center
Sat 03:18:32 PM 34.5839 -119.0783 146° Southeast 400 460 19,500 -1,550 Descending Los Angeles Center
Sat 03:19:32 PM 34.4939 -119.0044 145° Southeast 395 455 17,700 -1,700 Descending Los Angeles Center
Sat 03:20:32 PM 34.4081 -118.9311 151° Southeast 390 449 16,100 -1,650 Descending Los Angeles Center
Sat 03:21:32 PM 34.3094 -118.8650 165° South 385 443 14,400 -1,650 Descending Los Angeles Center
Sat 03:22:32 PM 34.2119 -118.8342 163° South 370 426 12,800 -1,450 Descending Los Angeles Center
Sat 03:23:32 PM 34.1167 -118.7983 151° Southeast 365 420 11,500 -1,100 Descending Los Angeles Center
Sat 03:24:32 PM 34.0386 -118.7458 101° East 327 376 10,600 -800 Descending Los Angeles Center
Sat 03:25:32 PM 34.0219 -118.6425 94° East 284 327 9,900 -650 Descending Los Angeles Center
Sat 03:26:32 PM 34.0156 -118.5394 103° East 284 327 9,300 -650 Descending Los Angeles Center
Sat 03:27:32 PM 33.9967 -118.4439 73° East 284 327 8,600 -1,156 Descending Los Angeles Center
Sat 03:28:21 PM 34.0167 -118.3667 76° East 280 322 7,200 -1,706 Descending Southern California TRACON
Sat 03:29:21 PM 34.0333 -118.2833 90° East 253 291 5,500 -1,600 Descending Southern California TRACON
Sat 03:30:21 PM 34.0333 -118.2000 107° East 229 264 4,000 -1,150 Descending Southern California TRACON
Sat 03:31:21 PM 34.0167 -118.1333 231° Southwest 226 260 3,200 -574 Descending Southern California TRACON
Sat 03:32:16 PM 33.9833 -118.1833 253° West 193 222 2,900 -298 Descending Southern California TRACON
Sat 03:33:22 PM 33.9667 -118.2500 253° West 190 219 2,600 -273 Descending Southern California TRACON

Login

Don't have an account? Register now (free) for customized features, flight alerts, and more!